Hovedside
METAR-TAF:

METAR-TAF

Lufthavner :

Rønne, Danmark

Bornholms lufthavn

breddegrad: 55-04N, lengdegrad: 014-45E, høyde over havet: 16 m

Gjeldene værobservasjon

Denne rapporten ble laget for 20 minutter siden, klokken 18:20 UTC
Vind 4 kt fra Vest-nordvest
Temperatur 13°C
Luftfuktighet 100%
Trykk 1021 hPa
Sikt: 4000 m
dis

METAR: EKRN 221820Z AUTO 30004KT 4000NDV BR BKN003/// BKN006/// OVC021/// 13/13 Q1021

Tid: 20:40 (18:40 UTC)

Varsel

Denne rapporten ble laget for 1 time og 41 minutter siden, klokken 16:59 UTC
Varsel gyldig fra 22. klokken 16 UTC til 22. klokken 21 UTC
Vind 8 kt fra Nord
Sikt 10 km eller mer
Brutte skyer i en høyde av 400 ft
Midlertidig
fra 22. klokken 16 UTC til 22. klokken 21 UTC
Sikt: 4000 m
Brutte skyer i en høyde av 2000 ft
regn, duskregn, dis

TAF: EKRN 221659Z 2216/2221 36008KT 9999 BKN004 TEMPO 2216/2221 4000 RADZ BR BKN020

Værobservasjoner og værvarsel for over 4000 flyplasser (METAR- og TAF-rapporter).

Tilgjengelige stasjoner er representert av de røde og gule prikkene på kartet.

Hold musepekeren over prikken for å se navnet på stasjonen.

Klikk så for å se værobservasjoner og -varsler.

For å forandre kartet kan du klikke på den grønne knappen med svart kryss for å zoome inn, på den grønne knappen med strek for å zoome ut, eller på de grønne pilene for å se tilstøtende kart.


METAR-TAF: